createdAt,value
2023-04-23T00:02:03.083Z,10.70
2023-04-23T00:04:34.100Z,11.50
2023-04-23T00:07:02.085Z,10.87
2023-04-23T00:09:32.475Z,11.17
2023-04-23T00:12:02.125Z,11.33
2023-04-23T00:14:31.048Z,12.33
2023-04-23T00:16:59.686Z,11.23
2023-04-23T00:19:27.216Z,11.67
2023-04-23T00:21:54.763Z,11.73
2023-04-23T00:24:22.545Z,11.63
2023-04-23T00:26:53.539Z,12.57
2023-04-23T00:29:21.133Z,11.67
2023-04-23T00:31:49.305Z,12.90
2023-04-23T00:34:16.974Z,10.77
2023-04-23T00:36:45.175Z,11.73
2023-04-23T00:39:12.904Z,11.80
2023-04-23T00:41:41.711Z,12.20
2023-04-23T00:44:09.834Z,12.83
2023-04-23T00:46:38.543Z,12.83
2023-04-23T00:49:06.059Z,12.03
2023-04-23T00:51:33.785Z,11.70
2023-04-23T00:54:02.217Z,13.53
2023-04-23T00:56:30.280Z,12.40
2023-04-23T00:58:58.241Z,13.10
2023-04-23T01:01:26.298Z,13.27
2023-04-23T01:03:53.927Z,12.97
2023-04-23T01:06:21.617Z,13.30
2023-04-23T01:08:49.286Z,13.27
2023-04-23T01:11:16.932Z,12.63
2023-04-23T01:13:44.608Z,13.37
2023-04-23T01:16:12.621Z,12.83
2023-04-23T01:18:41.267Z,12.30
2023-04-23T01:21:10.065Z,13.57
2023-04-23T01:23:38.065Z,12.23
2023-04-23T01:26:06.076Z,11.40
2023-04-23T01:28:33.614Z,11.37
2023-04-23T01:31:00.888Z,12.27
2023-04-23T01:33:28.665Z,12.67
2023-04-23T01:35:55.574Z,12.80
2023-04-23T01:38:23.666Z,13.23
2023-04-23T01:40:51.908Z,13.03
2023-04-23T01:43:19.954Z,13.40
2023-04-23T01:45:47.994Z,13.27
2023-04-23T01:48:15.257Z,12.50
2023-04-23T01:50:43.277Z,11.63
2023-04-23T01:53:10.543Z,11.67
2023-04-23T01:55:39.517Z,12.77
2023-04-23T01:58:07.249Z,12.87
2023-04-23T02:00:35.176Z,11.57
2023-04-23T02:03:03.308Z,11.90
2023-04-23T02:05:31.596Z,13.33
2023-04-23T02:07:59.405Z,13.50
2023-04-23T02:10:27.214Z,14.20
2023-04-23T02:12:55.113Z,12.53
2023-04-23T02:15:23.204Z,14.30
2023-04-23T02:17:52.354Z,14.47
2023-04-23T02:20:19.890Z,14.00
2023-04-23T02:22:48.221Z,15.10
2023-04-23T02:25:17.029Z,15.87
2023-04-23T02:27:45.552Z,14.77
2023-04-23T02:30:14.334Z,14.87
2023-04-23T02:32:43.243Z,14.30
2023-04-23T02:35:11.043Z,14.80
2023-04-23T02:37:38.435Z,14.30
2023-04-23T02:40:09.198Z,14.90
2023-04-23T02:42:37.535Z,14.87
2023-04-23T02:45:07.383Z,15.53
2023-04-23T02:47:34.515Z,16.10
2023-04-23T02:50:05.975Z,15.77
2023-04-23T02:52:34.381Z,15.47
2023-04-23T02:55:02.622Z,16.60
2023-04-23T02:57:30.559Z,15.43
2023-04-23T02:59:58.724Z,16.80
2023-04-23T03:02:26.549Z,16.43
2023-04-23T03:04:54.634Z,15.67
2023-04-23T03:07:22.634Z,16.33
2023-04-23T03:09:50.290Z,14.33
2023-04-23T03:12:18.322Z,15.93
2023-04-23T03:14:45.902Z,16.77
2023-04-23T03:17:14.055Z,15.83
2023-04-23T03:19:41.723Z,16.07
2023-04-23T03:22:10.032Z,16.43
2023-04-23T03:24:38.000Z,16.43
2023-04-23T03:27:06.962Z,15.97
2023-04-23T03:29:34.564Z,15.63
2023-04-23T03:32:02.740Z,16.13
2023-04-23T03:34:30.597Z,15.40
2023-04-23T03:36:58.741Z,16.23
2023-04-23T03:39:26.860Z,15.60
2023-04-23T03:41:54.484Z,15.30
2023-04-23T03:44:22.397Z,16.60
2023-04-23T03:46:50.031Z,15.07
2023-04-23T03:49:17.725Z,16.37
2023-04-23T03:51:45.560Z,16.37
2023-04-23T03:54:19.719Z,15.83
2023-04-23T03:56:47.911Z,15.03
2023-04-23T03:59:16.043Z,16.90
2023-04-23T04:01:44.340Z,15.47
2023-04-23T04:04:12.219Z,17.03
2023-04-23T04:06:40.488Z,17.07
2023-04-23T04:09:09.045Z,16.60
2023-04-23T04:11:38.057Z,16.67
2023-04-23T04:14:06.137Z,15.50
2023-04-23T04:16:34.544Z,15.53
2023-04-23T04:19:02.880Z,16.93
2023-04-23T04:21:30.866Z,16.27
2023-04-23T04:23:58.940Z,16.20
2023-04-23T04:26:27.019Z,15.53
2023-04-23T04:28:55.063Z,15.77
2023-04-23T04:31:22.952Z,15.77
2023-04-23T04:33:50.936Z,15.30
2023-04-23T04:36:19.072Z,15.43
2023-04-23T04:38:46.683Z,15.73
2023-04-23T04:41:14.981Z,15.20
2023-04-23T04:43:43.738Z,15.23
2023-04-23T04:46:11.974Z,15.23
2023-04-23T04:48:40.439Z,15.27
2023-04-23T04:51:07.931Z,14.73
2023-04-23T04:53:36.147Z,15.87
2023-04-23T04:56:03.822Z,14.97
2023-04-23T04:58:31.790Z,15.13
2023-04-23T05:00:59.700Z,14.67
2023-04-23T05:03:27.572Z,14.37
2023-04-23T05:05:56.532Z,14.23
2023-04-23T05:08:24.260Z,14.70
2023-04-23T05:10:51.898Z,14.77
2023-04-23T05:13:19.899Z,14.80
2023-04-23T05:15:48.222Z,13.57
2023-04-23T05:18:16.235Z,14.67
2023-04-23T05:20:43.292Z,14.80
2023-04-23T05:23:11.421Z,14.63
2023-04-23T05:25:40.611Z,15.00
2023-04-23T05:28:08.939Z,14.37
2023-04-23T05:30:36.594Z,15.43
2023-04-23T05:33:04.214Z,14.27
2023-04-23T05:35:32.067Z,14.07
2023-04-23T05:38:00.022Z,14.00
2023-04-23T05:40:28.037Z,15.17
2023-04-23T05:42:56.039Z,14.73
2023-04-23T05:45:24.308Z,15.13
2023-04-23T05:47:51.980Z,14.50
2023-04-23T05:50:20.697Z,15.50
2023-04-23T05:52:50.270Z,14.43
2023-04-23T05:55:18.494Z,15.07
2023-04-23T05:57:46.531Z,14.90
2023-04-23T06:00:16.014Z,15.50
2023-04-23T06:02:44.573Z,15.70
2023-04-23T06:05:12.780Z,15.83
2023-04-23T06:07:41.529Z,14.50
2023-04-23T06:10:10.522Z,15.47
2023-04-23T06:12:39.576Z,16.00
2023-04-23T06:15:10.107Z,16.03
2023-04-23T06:17:37.453Z,16.13
2023-04-23T06:20:11.981Z,17.10
2023-04-23T06:22:39.765Z,16.73
2023-04-23T06:25:10.248Z,16.90
2023-04-23T06:27:43.879Z,18.10
2023-04-23T06:30:13.786Z,17.83
2023-04-23T06:32:41.459Z,17.50
2023-04-23T06:35:11.054Z,17.93
2023-04-23T06:37:39.120Z,17.43
2023-04-23T06:40:08.533Z,17.77
2023-04-23T06:42:37.079Z,18.07
2023-04-23T06:45:10.324Z,17.67
2023-04-23T06:47:38.623Z,17.77
2023-04-23T06:50:10.196Z,18.33
2023-04-23T06:52:37.541Z,17.23
2023-04-23T06:55:06.804Z,17.63
2023-04-23T06:57:35.148Z,17.17
2023-04-23T07:00:02.948Z,17.97
2023-04-23T07:02:34.249Z,15.23
2023-04-23T07:05:02.477Z,14.97
2023-04-23T07:07:30.550Z,15.00
2023-04-23T07:09:58.174Z,14.87
2023-04-23T07:12:25.371Z,15.73
2023-04-23T07:14:54.420Z,14.93
2023-04-23T07:17:22.090Z,14.17
2023-04-23T07:19:50.274Z,15.17
2023-04-23T07:22:18.243Z,15.50
2023-04-23T07:24:45.923Z,15.50
2023-04-23T07:27:14.450Z,15.27
2023-04-23T07:29:43.402Z,15.70
2023-04-23T07:32:10.968Z,15.77
2023-04-23T07:34:44.263Z,15.97
2023-04-23T07:37:12.704Z,15.43
2023-04-23T07:39:44.837Z,13.93
2023-04-23T07:42:13.841Z,12.73
2023-04-23T07:44:41.937Z,12.93
2023-04-23T07:47:09.493Z,12.53
2023-04-23T07:49:37.494Z,10.70
2023-04-23T07:52:05.948Z,11.07
2023-04-23T07:54:33.740Z,11.87
2023-04-23T07:57:01.414Z,10.93
2023-04-23T07:59:29.423Z,9.97
2023-04-23T08:01:57.395Z,10.23
2023-04-23T08:04:27.458Z,10.50
2023-04-23T08:06:55.354Z,11.20
2023-04-23T08:09:23.619Z,11.33
2023-04-23T08:11:51.271Z,11.47
2023-04-23T08:14:18.917Z,10.63
2023-04-23T08:16:47.084Z,9.90
2023-04-23T08:19:15.272Z,10.70
2023-04-23T08:21:43.266Z,10.63
2023-04-23T08:24:10.874Z,10.77
2023-04-23T08:26:38.921Z,11.10
2023-04-23T08:29:06.148Z,11.57
2023-04-23T08:31:34.234Z,11.53
2023-04-23T08:34:02.488Z,11.57
2023-04-23T08:36:30.066Z,11.50
2023-04-23T08:38:57.922Z,11.87
2023-04-23T08:41:26.625Z,11.33
2023-04-23T08:44:01.626Z,13.07
2023-04-23T08:46:29.351Z,11.80
2023-04-23T08:48:57.218Z,14.20
2023-04-23T08:51:25.264Z,12.03
2023-04-23T08:53:55.232Z,16.20
2023-04-23T08:56:22.473Z,15.20
2023-04-23T08:58:51.215Z,13.60
2023-04-23T09:01:19.446Z,11.27
2023-04-23T09:03:47.606Z,9.77
2023-04-23T09:06:15.705Z,10.10
2023-04-23T09:08:43.905Z,22.10
2023-04-23T09:11:12.002Z,17.20
2023-04-23T09:13:41.557Z,11.57
2023-04-23T09:16:10.282Z,20.57
2023-04-23T09:18:38.733Z,13.10
2023-04-23T09:21:06.541Z,9.87
2023-04-23T09:23:34.657Z,10.27
2023-04-23T09:26:08.330Z,11.00
2023-04-23T09:28:36.755Z,10.37
2023-04-23T09:31:06.263Z,11.70
2023-04-23T09:33:36.456Z,12.47
2023-04-23T09:36:12.285Z,12.50
2023-04-23T09:38:42.220Z,10.98
2023-04-23T09:41:26.699Z,11.23
2023-04-23T09:43:56.662Z,10.60
2023-04-23T09:46:48.945Z,10.77
2023-04-23T09:49:16.465Z,12.57
2023-04-23T09:51:44.985Z,11.80
2023-04-23T09:54:21.955Z,11.47
2023-04-23T09:56:57.697Z,10.17
2023-04-23T09:59:45.446Z,10.25
2023-04-23T10:02:14.526Z,8.70
2023-04-23T10:04:42.518Z,8.83
2023-04-23T10:07:19.596Z,7.93
2023-04-23T10:09:48.254Z,8.80
2023-04-23T10:14:46.826Z,9.47
2023-04-23T10:17:14.791Z,8.53
2023-04-23T10:19:43.539Z,7.50
2023-04-23T10:22:19.350Z,7.57
2023-04-23T10:24:49.429Z,9.52
2023-04-23T10:27:30.659Z,6.70
2023-04-23T10:30:06.521Z,5.73
2023-04-23T10:32:37.608Z,6.63
2023-04-23T10:35:07.537Z,5.70
2023-04-23T10:37:35.588Z,6.10
2023-04-23T10:40:15.328Z,7.60
2023-04-23T10:42:43.470Z,8.63
2023-04-23T10:47:49.194Z,4.88
2023-04-23T10:50:30.800Z,5.75
2023-04-23T10:52:59.027Z,4.82
2023-04-23T10:55:28.062Z,4.07
2023-04-23T10:58:01.534Z,4.97
2023-04-23T11:00:51.038Z,5.03
2023-04-23T11:03:32.584Z,4.53
2023-04-23T11:06:04.129Z,3.95
2023-04-23T11:08:34.667Z,3.90
2023-04-23T11:11:02.547Z,4.15
2023-04-23T11:13:30.057Z,3.67
2023-04-23T11:16:21.767Z,4.10
2023-04-23T11:19:03.992Z,4.22
2023-04-23T11:21:56.582Z,4.60
2023-04-23T11:24:25.285Z,4.88
2023-04-23T11:26:55.017Z,4.05
2023-04-23T11:29:23.800Z,3.78
2023-04-23T11:32:01.839Z,4.50
2023-04-23T11:34:30.576Z,6.80
2023-04-23T11:36:59.132Z,4.57
2023-04-23T11:39:27.570Z,4.45
2023-04-23T11:41:55.059Z,4.63
2023-04-23T11:44:22.782Z,4.78
2023-04-23T11:46:50.255Z,5.05
2023-04-23T11:49:18.126Z,4.82
2023-04-23T11:51:45.893Z,4.68
2023-04-23T11:54:13.883Z,5.35
2023-04-23T11:56:42.053Z,7.78
2023-04-23T11:59:09.790Z,5.45
2023-04-23T12:01:47.023Z,6.28
2023-04-23T12:04:41.722Z,5.30
2023-04-23T12:07:25.791Z,6.35
2023-04-23T12:09:53.712Z,5.47
2023-04-23T12:12:21.764Z,5.60
2023-04-23T12:14:49.905Z,5.65
2023-04-23T12:17:17.473Z,5.43
2023-04-23T12:19:45.081Z,5.25
2023-04-23T12:22:12.927Z,5.45
2023-04-23T12:24:51.668Z,5.53
2023-04-23T12:27:20.545Z,5.28
2023-04-23T12:29:48.620Z,5.15
2023-04-23T12:32:15.960Z,4.65
2023-04-23T12:34:53.588Z,5.00
2023-04-23T12:37:26.642Z,5.60
2023-04-23T12:39:55.581Z,5.15
2023-04-23T12:42:22.457Z,5.10
2023-04-23T12:44:51.805Z,4.70
2023-04-23T12:47:25.235Z,5.07
2023-04-23T12:49:56.830Z,4.85
2023-04-23T12:52:24.136Z,4.40
2023-04-23T12:54:56.981Z,4.28
2023-04-23T12:57:25.369Z,4.60
2023-04-23T12:59:54.984Z,4.50
2023-04-23T13:02:23.371Z,4.30
2023-04-23T13:04:51.273Z,3.97
2023-04-23T13:07:18.866Z,4.25
2023-04-23T13:09:55.363Z,3.88
2023-04-23T13:12:25.479Z,3.88
2023-04-23T13:14:53.219Z,3.70
2023-04-23T13:17:21.462Z,4.00
2023-04-23T13:19:49.105Z,3.78
2023-04-23T13:22:17.288Z,3.78
2023-04-23T13:24:45.707Z,3.63
2023-04-23T13:27:13.636Z,3.78
2023-04-23T13:29:42.047Z,4.00
2023-04-23T13:32:10.923Z,3.50
2023-04-23T13:34:39.006Z,3.20
2023-04-23T13:37:09.346Z,4.47
2023-04-23T13:39:39.943Z,4.88
2023-04-23T13:42:10.194Z,4.40
2023-04-23T13:44:38.551Z,3.72
2023-04-23T13:47:07.663Z,3.45
2023-04-23T13:49:36.073Z,3.13
2023-04-23T13:52:07.319Z,3.30
2023-04-23T13:54:36.006Z,3.80
2023-04-23T13:57:03.737Z,2.83
2023-04-23T13:59:31.421Z,2.90
2023-04-23T14:01:59.911Z,3.03
2023-04-23T14:04:27.927Z,3.60
2023-04-23T14:06:55.693Z,3.28
2023-04-23T14:09:23.529Z,3.53
2023-04-23T14:11:51.629Z,2.70
2023-04-23T14:14:21.441Z,2.88
2023-04-23T14:16:49.879Z,2.88
2023-04-23T14:19:18.447Z,3.03
2023-04-23T14:21:46.747Z,2.60
2023-04-23T14:24:26.942Z,2.70
2023-04-23T14:26:54.469Z,2.75
2023-04-23T14:29:31.551Z,2.95
2023-04-23T14:31:59.061Z,3.33
2023-04-23T14:34:27.520Z,2.55
2023-04-23T14:36:55.084Z,2.75
2023-04-23T14:39:26.893Z,2.58
2023-04-23T14:41:54.473Z,2.70
2023-04-23T14:44:26.696Z,2.30
2023-04-23T14:46:54.625Z,2.38
2023-04-23T14:49:22.702Z,4.60
2023-04-23T14:51:51.079Z,2.42
2023-04-23T14:54:19.048Z,2.38
2023-04-23T14:56:47.351Z,2.30
2023-04-23T14:59:15.160Z,2.38
2023-04-23T15:01:43.521Z,2.10
2023-04-23T15:04:12.005Z,2.10
2023-04-23T15:06:40.790Z,2.03
2023-04-23T15:09:09.197Z,2.15
2023-04-23T15:11:37.993Z,2.33
2023-04-23T15:14:11.370Z,2.60
2023-04-23T15:19:12.840Z,2.15
2023-04-23T15:21:42.903Z,2.45
2023-04-23T15:24:11.116Z,2.30
2023-04-23T15:26:38.796Z,2.60
2023-04-23T15:29:09.147Z,2.33
2023-04-23T15:31:38.339Z,2.42
2023-04-23T15:34:09.639Z,2.55
2023-04-23T15:36:38.083Z,2.55
2023-04-23T15:39:07.383Z,2.10
2023-04-23T15:41:39.432Z,2.03
2023-04-23T15:44:13.373Z,2.30
2023-04-23T15:46:41.126Z,3.05
2023-04-23T15:49:08.886Z,2.60
2023-04-23T15:51:36.689Z,2.20
2023-04-23T15:54:08.117Z,2.95
2023-04-23T15:56:37.506Z,2.03
2023-04-23T15:59:04.791Z,2.40
2023-04-23T16:01:32.822Z,2.40
2023-04-23T16:04:10.362Z,2.05
2023-04-23T16:06:39.269Z,2.42
2023-04-23T16:09:09.352Z,2.17
2023-04-23T16:11:37.215Z,2.08
2023-04-23T16:14:05.606Z,2.22
2023-04-23T16:16:33.341Z,2.35
2023-04-23T16:19:02.636Z,2.60
2023-04-23T16:21:31.340Z,2.58
2023-04-23T16:23:58.906Z,2.35
2023-04-23T16:26:26.428Z,2.70
2023-04-23T16:29:05.504Z,2.28
2023-04-23T16:31:39.801Z,2.72
2023-04-23T16:34:07.529Z,2.90
2023-04-23T16:36:35.297Z,3.10
2023-04-23T16:39:10.467Z,3.00
2023-04-23T16:41:37.973Z,3.03
2023-04-23T16:44:05.870Z,3.25
2023-04-23T16:46:33.635Z,4.10
2023-04-23T16:49:01.292Z,3.20
2023-04-23T16:51:29.682Z,3.70
2023-04-23T16:53:58.099Z,3.08
2023-04-23T16:56:24.790Z,3.83
2023-04-23T16:58:52.052Z,4.13
2023-04-23T17:01:19.744Z,3.92
2023-04-23T17:03:48.003Z,3.70
2023-04-23T17:06:27.731Z,4.55
2023-04-23T17:08:55.912Z,4.78
2023-04-23T17:11:24.731Z,4.82
2023-04-23T17:13:57.716Z,5.45
2023-04-23T17:16:27.913Z,5.90
2023-04-23T17:18:55.852Z,6.40
2023-04-23T17:21:23.804Z,6.60
2023-04-23T17:23:50.541Z,6.27
2023-04-23T17:26:18.565Z,6.70
2023-04-23T17:28:47.118Z,6.47
2023-04-23T17:31:15.634Z,5.60
2023-04-23T17:33:49.662Z,7.07
2023-04-23T17:36:17.699Z,7.00
2023-04-23T17:38:45.939Z,6.80
2023-04-23T17:41:13.925Z,6.97
2023-04-23T17:43:41.944Z,6.57
2023-04-23T17:46:09.617Z,7.03
2023-04-23T17:48:37.193Z,6.73
2023-04-23T17:51:05.220Z,7.40
2023-04-23T17:53:33.283Z,7.27
2023-04-23T17:56:03.053Z,6.97
2023-04-23T17:58:30.888Z,7.07
2023-04-23T18:00:59.165Z,6.90
2023-04-23T18:03:27.903Z,6.90
2023-04-23T18:05:55.423Z,7.40
2023-04-23T18:08:23.375Z,7.50
2023-04-23T18:10:51.452Z,8.17
2023-04-23T18:13:19.166Z,7.83
2023-04-23T18:15:49.955Z,8.20
2023-04-23T18:18:18.939Z,8.13
2023-04-23T18:20:47.638Z,8.17
2023-04-23T18:23:15.592Z,8.30
2023-04-23T18:25:44.082Z,7.40
2023-04-23T18:28:12.061Z,7.30
2023-04-23T18:30:39.404Z,7.30
2023-04-23T18:33:25.456Z,7.37
2023-04-23T18:35:54.091Z,7.47
2023-04-23T18:38:41.710Z,7.37
2023-04-23T18:41:09.333Z,6.60
2023-04-23T18:43:37.108Z,10.47
2023-04-23T18:46:04.255Z,8.70
2023-04-23T18:48:34.218Z,7.47
2023-04-23T18:51:15.821Z,6.90
2023-04-23T18:53:43.607Z,6.70
2023-04-23T18:56:11.103Z,7.30
2023-04-23T18:58:39.019Z,6.87
2023-04-23T19:01:06.716Z,7.10
2023-04-23T19:03:34.362Z,7.27
2023-04-23T19:06:07.357Z,6.37
2023-04-23T19:08:36.433Z,6.80
2023-04-23T19:11:04.197Z,7.03
2023-04-23T19:13:38.141Z,7.60
2023-04-23T19:16:06.038Z,7.03
2023-04-23T19:18:34.789Z,5.67
2023-04-23T19:21:02.423Z,6.30
2023-04-23T19:23:30.088Z,6.67
2023-04-23T19:25:58.206Z,6.70
2023-04-23T19:28:26.085Z,6.40
2023-04-23T19:30:55.859Z,7.07
2023-04-23T19:33:35.924Z,6.80
2023-04-23T19:36:03.608Z,6.63
2023-04-23T19:38:41.379Z,7.47
2023-04-23T19:41:09.003Z,7.07
2023-04-23T19:43:36.542Z,7.77
2023-04-23T19:46:04.680Z,6.90
2023-04-23T19:48:44.471Z,7.70
2023-04-23T19:51:11.163Z,7.10
2023-04-23T19:53:38.882Z,6.63
2023-04-23T19:56:09.123Z,7.30
2023-04-23T19:58:36.912Z,7.27
2023-04-23T20:01:04.578Z,7.57
2023-04-23T20:03:34.693Z,7.57
2023-04-23T20:06:02.383Z,7.30
2023-04-23T20:08:41.452Z,7.03
2023-04-23T20:11:11.863Z,7.17
2023-04-23T20:13:39.564Z,7.70
2023-04-23T20:16:08.372Z,6.60
2023-04-23T20:18:38.814Z,7.17
2023-04-23T20:21:06.435Z,7.77
2023-04-23T20:23:34.373Z,6.60
2023-04-23T20:26:01.559Z,7.00
2023-04-23T20:28:29.209Z,6.97
2023-04-23T20:30:56.846Z,6.27
2023-04-23T20:33:24.549Z,6.73
2023-04-23T20:35:51.892Z,7.00
2023-04-23T20:38:39.308Z,6.23
2023-04-23T20:41:10.104Z,6.17
2023-04-23T20:43:42.645Z,6.20
2023-04-23T20:46:10.398Z,7.43
2023-04-23T20:48:39.379Z,7.67
2023-04-23T20:51:08.622Z,7.40
2023-04-23T20:53:40.173Z,7.57
2023-04-23T20:56:07.928Z,7.17
2023-04-23T20:58:36.426Z,7.50
2023-04-23T21:01:04.943Z,6.77
2023-04-23T21:03:33.155Z,6.87
2023-04-23T21:06:00.903Z,6.50
2023-04-23T21:08:28.969Z,6.90
2023-04-23T21:10:56.058Z,6.40
2023-04-23T21:13:23.249Z,6.90
2023-04-23T21:15:50.903Z,6.77
2023-04-23T21:18:19.313Z,6.93
2023-04-23T21:20:47.245Z,6.50
2023-04-23T21:23:15.446Z,7.23
2023-04-23T21:25:43.194Z,6.50
2023-04-23T21:28:11.025Z,7.10
2023-04-23T21:30:51.018Z,6.47
2023-04-23T21:33:18.921Z,6.77
2023-04-23T21:35:46.272Z,7.27
2023-04-23T21:38:14.657Z,7.80
2023-04-23T21:40:41.820Z,7.20
2023-04-23T21:43:09.409Z,7.37
2023-04-23T21:45:37.220Z,8.17
2023-04-23T21:48:04.274Z,8.17
2023-04-23T21:50:32.426Z,7.77
2023-04-23T21:53:00.625Z,8.47
2023-04-23T21:55:27.985Z,8.97
2023-04-23T21:58:03.285Z,8.37
2023-04-23T22:00:42.623Z,8.60
2023-04-23T22:03:11.388Z,8.10
2023-04-23T22:05:38.975Z,8.97
2023-04-23T22:08:09.672Z,8.43
2023-04-23T22:10:42.909Z,8.57
2023-04-23T22:13:11.216Z,8.73
2023-04-23T22:15:38.476Z,9.13
2023-04-23T22:18:06.663Z,9.57
2023-04-23T22:20:34.159Z,9.50
2023-04-23T22:23:02.163Z,8.40
2023-04-23T22:25:29.632Z,8.77
2023-04-23T22:27:57.656Z,9.30
2023-04-23T22:30:26.212Z,8.57
2023-04-23T22:32:54.266Z,8.40
2023-04-23T22:35:22.661Z,8.90
2023-04-23T22:37:50.336Z,9.63
2023-04-23T22:40:17.561Z,8.70
2023-04-23T22:42:45.925Z,8.00
2023-04-23T22:45:13.446Z,8.70
2023-04-23T22:47:41.936Z,7.73
2023-04-23T22:50:12.256Z,7.33
2023-04-23T22:52:39.956Z,7.37
2023-04-23T22:55:09.998Z,7.20
2023-04-23T22:57:40.392Z,5.70
2023-04-23T23:00:13.855Z,6.83
2023-04-23T23:02:41.687Z,6.60
2023-04-23T23:05:09.780Z,5.87
2023-04-23T23:07:37.247Z,6.17
2023-04-23T23:10:08.603Z,6.10
2023-04-23T23:12:39.504Z,6.47
2023-04-23T23:15:09.089Z,6.00
2023-04-23T23:17:37.132Z,5.53
2023-04-23T23:20:09.998Z,5.57
2023-04-23T23:22:38.569Z,5.90
2023-04-23T23:25:07.615Z,6.13
2023-04-23T23:27:35.727Z,6.20
2023-04-23T23:30:06.055Z,6.40
2023-04-23T23:32:33.846Z,6.00
2023-04-23T23:35:01.962Z,6.53
2023-04-23T23:37:30.398Z,6.73
2023-04-23T23:39:58.272Z,6.93
2023-04-23T23:42:25.958Z,6.93
2023-04-23T23:44:53.914Z,7.10
2023-04-23T23:47:21.582Z,7.53
2023-04-23T23:49:52.443Z,6.93
2023-04-23T23:52:20.167Z,7.03
2023-04-23T23:54:48.087Z,6.63
2023-04-23T23:57:15.955Z,6.50
2023-04-23T23:59:44.528Z,6.83
